createdAt,value
2018-06-03T00:02:16.088Z,101007.28
2018-06-03T00:05:18.660Z,101004.05
2018-06-03T00:08:21.210Z,101005.06
2018-06-03T00:11:23.735Z,101006.48
2018-06-03T00:14:26.281Z,100998.09
2018-06-03T00:17:28.845Z,101003.92
2018-06-03T00:20:43.103Z,100994.17
2018-06-03T00:23:45.582Z,101002.91
2018-06-03T00:26:48.119Z,101004.22
2018-06-03T00:29:50.608Z,101004.91
2018-06-03T00:32:53.108Z,101012.91
2018-06-03T00:36:07.320Z,101008.95
2018-06-03T00:39:09.904Z,101009.64
2018-06-03T00:42:12.417Z,101008.41
2018-06-03T00:45:14.926Z,101010.56
2018-06-03T00:48:17.417Z,101009.98
2018-06-03T00:51:19.914Z,101018.00
2018-06-03T00:54:22.407Z,101024.78
2018-06-03T00:57:24.928Z,101023.13
2018-06-03T01:00:27.504Z,101023.08
2018-06-03T01:03:30.011Z,101031.31
2018-06-03T01:06:32.567Z,101032.92
2018-06-03T01:09:35.043Z,101028.86
2018-06-03T01:12:38.335Z,101032.84
2018-06-03T01:15:40.842Z,101025.69
2018-06-03T01:18:43.452Z,101028.27
2018-06-03T01:21:45.967Z,101025.45
2018-06-03T01:24:48.466Z,101034.81
2018-06-03T01:27:50.951Z,101033.03
2018-06-03T01:30:53.458Z,101034.42
2018-06-03T01:33:55.974Z,101030.69
2018-06-03T01:36:58.493Z,101034.89
2018-06-03T01:40:00.966Z,101031.70
2018-06-03T01:43:03.486Z,101036.09
2018-06-03T01:46:05.990Z,101033.13
2018-06-03T01:49:08.480Z,101029.04
2018-06-03T01:52:11.003Z,101034.28
2018-06-03T01:55:13.524Z,101028.58
2018-06-03T01:58:16.012Z,101030.13
2018-06-03T02:01:18.494Z,101027.89
2018-06-03T02:04:20.986Z,101023.31
2018-06-03T02:07:23.479Z,101027.32
2018-06-03T02:10:25.983Z,101028.75
2018-06-03T02:13:28.475Z,101033.02
2018-06-03T02:16:31.053Z,101030.91
2018-06-03T02:19:33.572Z,101026.48
2018-06-03T02:22:36.090Z,101027.98
2018-06-03T02:25:38.628Z,101023.92
2018-06-03T02:28:41.132Z,101024.35
2018-06-03T02:31:43.653Z,101024.55
2018-06-03T02:34:46.164Z,101020.58
2018-06-03T02:37:48.667Z,101025.61
2018-06-03T02:40:51.202Z,101024.61
2018-06-03T02:43:53.703Z,101017.84
2018-06-03T02:46:56.203Z,101016.70
2018-06-03T02:49:58.719Z,101017.16
2018-06-03T02:53:01.240Z,101026.57
2018-06-03T02:56:03.730Z,101023.63
2018-06-03T02:59:06.252Z,101027.14
2018-06-03T03:02:08.731Z,101022.88
2018-06-03T03:05:11.244Z,101025.56
2018-06-03T03:08:13.751Z,101026.34
2018-06-03T03:11:16.219Z,101017.89
2018-06-03T03:14:18.703Z,101023.11
2018-06-03T03:17:21.209Z,101024.27
2018-06-03T03:20:23.689Z,101025.39
2018-06-03T03:23:26.179Z,101024.04
2018-06-03T03:26:28.658Z,101018.88
2018-06-03T03:29:31.183Z,101018.73
2018-06-03T03:32:33.666Z,101020.48
2018-06-03T03:35:36.165Z,101026.55
2018-06-03T03:38:38.690Z,101026.80
2018-06-03T03:41:41.185Z,101026.25
2018-06-03T03:44:43.663Z,101029.13
2018-06-03T03:47:46.886Z,101024.70
2018-06-03T03:50:49.358Z,101027.78
2018-06-03T03:53:51.854Z,101027.69
2018-06-03T03:56:54.341Z,101036.55
2018-06-03T03:59:56.836Z,101033.25
2018-06-03T04:02:59.351Z,101036.81
2018-06-03T04:06:01.818Z,101033.19
2018-06-03T04:09:04.320Z,101036.33
2018-06-03T04:12:06.815Z,101037.25
2018-06-03T04:15:09.333Z,101033.30
2018-06-03T04:18:11.947Z,101038.25
2018-06-03T04:21:14.438Z,101041.97
2018-06-03T04:24:16.917Z,101034.52
2018-06-03T04:27:19.411Z,101037.94
2018-06-03T04:30:21.898Z,101035.84
2018-06-03T04:33:24.378Z,101037.53
2018-06-03T04:36:26.954Z,101036.44
2018-06-03T04:39:29.461Z,101035.58
2018-06-03T04:42:31.933Z,101045.62
2018-06-03T04:45:34.454Z,101046.31
2018-06-03T04:48:36.943Z,101049.36
2018-06-03T04:51:39.435Z,101046.08
2018-06-03T04:54:41.963Z,101055.17
2018-06-03T04:57:44.463Z,101055.38
2018-06-03T05:00:46.937Z,101062.62
2018-06-03T05:03:49.443Z,101061.51
2018-06-03T05:06:51.952Z,101054.08
2018-06-03T05:09:54.487Z,101060.87
2018-06-03T05:12:57.039Z,101061.08
2018-06-03T05:15:59.554Z,101059.72
2018-06-03T05:19:02.079Z,101062.43
2018-06-03T05:22:04.587Z,101064.77
2018-06-03T05:25:07.135Z,101058.95
2018-06-03T05:28:09.663Z,101063.98
2018-06-03T05:31:12.141Z,101066.11
2018-06-03T05:34:14.629Z,101066.50
2018-06-03T05:37:17.110Z,101069.55
2018-06-03T05:40:19.628Z,101071.13
2018-06-03T05:43:22.105Z,101066.50
2018-06-03T05:46:24.675Z,101070.08
2018-06-03T05:49:27.180Z,101066.84
2018-06-03T05:52:29.673Z,101077.09
2018-06-03T05:55:32.246Z,101075.10
2018-06-03T05:58:34.748Z,101074.63
2018-06-03T06:01:37.286Z,101068.78
2018-06-03T06:04:39.825Z,101065.94
2018-06-03T06:07:42.414Z,101076.28
2018-06-03T06:10:44.964Z,101077.52
2018-06-03T06:13:47.482Z,101080.38
2018-06-03T06:16:50.017Z,101077.98
2018-06-03T06:19:52.543Z,101077.89
2018-06-03T06:22:55.171Z,101086.84
2018-06-03T06:25:58.490Z,101087.73
2018-06-03T06:29:01.006Z,101083.91
2018-06-03T06:32:03.516Z,101092.06
2018-06-03T06:35:06.058Z,101092.52
2018-06-03T06:38:08.532Z,101092.03
2018-06-03T06:41:11.696Z,101093.44
2018-06-03T06:44:15.141Z,101096.94
2018-06-03T06:47:17.648Z,101095.75
2018-06-03T06:50:20.631Z,101091.62
2018-06-03T06:53:23.150Z,101091.00
2018-06-03T06:56:25.738Z,101095.91
2018-06-03T06:59:28.250Z,101098.24
2018-06-03T07:02:30.786Z,101090.95
2018-06-03T07:05:33.346Z,101096.23
2018-06-03T07:08:35.840Z,101096.86
2018-06-03T07:11:38.362Z,101095.41
2018-06-03T07:14:40.917Z,101104.09
2018-06-03T07:17:43.559Z,101104.45
2018-06-03T07:20:46.425Z,101111.38
2018-06-03T07:23:48.931Z,101108.67
2018-06-03T07:26:51.510Z,101104.08
2018-06-03T07:29:54.125Z,101116.22
2018-06-03T07:32:56.661Z,101114.34
2018-06-03T07:35:59.180Z,101123.33
2018-06-03T07:39:01.690Z,101125.04
2018-06-03T07:42:04.224Z,101128.23
2018-06-03T07:45:06.739Z,101124.22
2018-06-03T07:48:09.276Z,101127.62
2018-06-03T07:51:11.806Z,101124.89
2018-06-03T07:54:14.358Z,101119.84
2018-06-03T07:57:16.950Z,101123.66
2018-06-03T08:00:19.592Z,101122.99
2018-06-03T08:03:22.169Z,101125.21
2018-06-03T08:06:24.704Z,101124.92
2018-06-03T08:09:27.230Z,101128.58
2018-06-03T08:12:29.776Z,101127.25
2018-06-03T08:15:32.430Z,101125.87
2018-06-03T08:18:34.956Z,101125.88
2018-06-03T08:21:37.477Z,101116.23
2018-06-03T08:24:40.039Z,101118.55
2018-06-03T08:27:42.574Z,101123.83
2018-06-03T08:30:45.224Z,101126.42
2018-06-03T08:33:48.462Z,101128.33
2018-06-03T08:36:50.988Z,101128.95
2018-06-03T08:39:53.542Z,101133.29
2018-06-03T08:42:56.101Z,101137.12
2018-06-03T08:45:58.710Z,101140.95
2018-06-03T08:49:02.022Z,101136.31
2018-06-03T08:52:04.564Z,101141.34
2018-06-03T08:55:07.073Z,101144.78
2018-06-03T08:58:09.625Z,101139.21
2018-06-03T09:01:12.225Z,101139.41
2018-06-03T09:04:14.774Z,101138.67
2018-06-03T09:07:17.294Z,101141.19
2018-06-03T09:10:19.849Z,101139.06
2018-06-03T09:13:24.158Z,101145.36
2018-06-03T09:16:26.777Z,101142.55
2018-06-03T09:19:29.307Z,101144.20
2018-06-03T09:22:31.909Z,101153.92
2018-06-03T09:25:34.446Z,101151.02
2018-06-03T09:28:37.075Z,101149.47
2018-06-03T09:31:39.644Z,101153.72
2018-06-03T09:34:42.253Z,101153.25
2018-06-03T09:37:44.801Z,101151.89
2018-06-03T09:40:47.421Z,101154.59
2018-06-03T09:43:50.037Z,101151.05
2018-06-03T09:46:52.665Z,101150.48
2018-06-03T09:49:55.181Z,101149.65
2018-06-03T09:52:58.033Z,101144.57
2018-06-03T09:56:00.589Z,101147.78
2018-06-03T09:59:03.239Z,101148.45
2018-06-03T10:02:05.803Z,101154.14
2018-06-03T10:05:08.389Z,101158.16
2018-06-03T10:08:10.964Z,101159.14
2018-06-03T10:11:13.528Z,101161.42
2018-06-03T10:14:16.175Z,101160.17
2018-06-03T10:17:18.866Z,101159.20
2018-06-03T10:20:21.444Z,101165.68
2018-06-03T10:23:24.016Z,101161.15
2018-06-03T10:26:26.609Z,101171.64
2018-06-03T10:29:29.190Z,101178.02
2018-06-03T10:32:31.754Z,101171.59
2018-06-03T10:35:34.344Z,101173.55
2018-06-03T10:38:36.991Z,101169.14
2018-06-03T10:41:40.700Z,101174.09
2018-06-03T10:44:43.329Z,101173.92
2018-06-03T10:47:46.006Z,101168.10
2018-06-03T10:50:48.563Z,101169.45
2018-06-03T10:53:51.102Z,101167.24
2018-06-03T10:56:54.800Z,101169.46
2018-06-03T10:59:57.447Z,101172.75
2018-06-03T11:03:00.040Z,101158.47
2018-06-03T11:06:02.634Z,101161.77
2018-06-03T11:09:05.208Z,101170.14
2018-06-03T11:12:07.747Z,101168.01
2018-06-03T11:15:10.270Z,101165.93
2018-06-03T11:18:12.908Z,101161.62
2018-06-03T11:21:15.466Z,101165.89
2018-06-03T11:24:18.623Z,101162.45
2018-06-03T11:27:21.226Z,101162.94
2018-06-03T11:30:23.788Z,101163.75
2018-06-03T11:33:26.366Z,101162.06
2018-06-03T11:36:28.925Z,101168.83
2018-06-03T11:39:31.530Z,101167.12
2018-06-03T11:42:34.104Z,101171.16
2018-06-03T11:45:42.181Z,101169.23
2018-06-03T11:48:44.826Z,101166.98
2018-06-03T11:51:47.851Z,101172.85
2018-06-03T11:54:50.910Z,101164.47
2018-06-03T11:57:55.558Z,101156.69
2018-06-03T12:01:06.367Z,101150.20
2018-06-03T12:04:09.176Z,101144.61
2018-06-03T12:07:12.329Z,101143.44
2018-06-03T12:10:16.353Z,101143.19
2018-06-03T12:13:19.286Z,101143.98
2018-06-03T12:16:22.212Z,101148.28
2018-06-03T12:19:24.994Z,101145.02
2018-06-03T12:22:28.675Z,101146.52
2018-06-03T12:25:31.537Z,101144.00
2018-06-03T12:28:34.391Z,101139.37
2018-06-03T12:31:38.493Z,101135.67
2018-06-03T12:34:41.629Z,101135.42
2018-06-03T12:37:44.276Z,101140.30
2018-06-03T12:40:46.819Z,101138.51
2018-06-03T12:43:49.412Z,101134.11
2018-06-03T12:46:51.957Z,101133.33
2018-06-03T12:49:54.569Z,101127.48
2018-06-03T12:52:58.282Z,101123.94
2018-06-03T12:56:01.967Z,101125.07
2018-06-03T12:59:04.682Z,101128.64
2018-06-03T13:02:07.258Z,101113.48
2018-06-03T13:05:09.856Z,101108.67
2018-06-03T13:08:12.443Z,101105.95
2018-06-03T13:11:15.045Z,101103.89
2018-06-03T13:14:17.592Z,101095.17
2018-06-03T13:17:20.198Z,101099.50
2018-06-03T13:20:22.741Z,101099.64
2018-06-03T13:23:25.400Z,101088.09
2018-06-03T13:26:27.921Z,101087.09
2018-06-03T13:29:30.563Z,101084.82
2018-06-03T13:32:33.371Z,101081.84
2018-06-03T13:35:35.968Z,101074.28
2018-06-03T13:38:38.542Z,101070.09
2018-06-03T13:41:41.094Z,101072.55
2018-06-03T13:44:43.676Z,101071.62
2018-06-03T13:47:46.223Z,101082.50
2018-06-03T13:50:49.537Z,101075.46
2018-06-03T13:53:52.121Z,101071.70
2018-06-03T13:56:54.674Z,101068.11
2018-06-03T13:59:57.271Z,101062.22
2018-06-03T14:02:59.840Z,101062.54
2018-06-03T14:06:02.399Z,101058.34
2018-06-03T14:09:05.025Z,101054.03
2018-06-03T14:12:07.581Z,101053.22
2018-06-03T14:15:10.177Z,101051.30
2018-06-03T14:18:12.783Z,101050.05
2018-06-03T14:21:15.500Z,101054.16
2018-06-03T14:24:18.088Z,101047.88
2018-06-03T14:27:20.703Z,101044.86
2018-06-03T14:30:23.371Z,101045.66
2018-06-03T14:33:26.016Z,101041.66
2018-06-03T14:36:28.656Z,101031.82
2018-06-03T14:39:31.239Z,101031.50
2018-06-03T14:42:33.774Z,101032.38
2018-06-03T14:45:36.362Z,101033.94
2018-06-03T14:48:38.946Z,101031.39
2018-06-03T14:51:41.621Z,101026.05
2018-06-03T14:54:44.246Z,101024.25
2018-06-03T14:57:46.765Z,101019.83
2018-06-03T15:00:49.417Z,101019.99
2018-06-03T15:03:52.036Z,101018.60
2018-06-03T15:06:54.560Z,101017.31
2018-06-03T15:09:57.148Z,101016.00
2018-06-03T15:12:59.718Z,101013.00
2018-06-03T15:16:02.367Z,101007.76
2018-06-03T15:19:04.992Z,101008.09
2018-06-03T15:22:07.584Z,101010.86
2018-06-03T15:25:10.213Z,101000.41
2018-06-03T15:28:12.807Z,101001.88
2018-06-03T15:31:15.529Z,101004.58
2018-06-03T15:34:19.383Z,101007.99
2018-06-03T15:37:22.093Z,100998.56
2018-06-03T15:40:24.736Z,100999.55
2018-06-03T15:43:27.406Z,100998.29
2018-06-03T15:46:30.092Z,100999.44
2018-06-03T15:49:32.655Z,101001.62
2018-06-03T15:52:35.204Z,100994.88
2018-06-03T15:55:37.852Z,100989.37
2018-06-03T15:58:40.439Z,100992.19
2018-06-03T16:01:43.137Z,100990.25
2018-06-03T16:04:45.772Z,100981.77
2018-06-03T16:07:48.443Z,100985.61
2018-06-03T16:10:51.060Z,100981.20
2018-06-03T16:13:53.677Z,100974.89
2018-06-03T16:16:56.374Z,100974.89
2018-06-03T16:19:59.168Z,100974.25
2018-06-03T16:23:01.966Z,100967.72
2018-06-03T16:26:04.665Z,100962.81
2018-06-03T16:29:07.345Z,100965.44
2018-06-03T16:32:10.023Z,100964.66
2018-06-03T16:35:12.695Z,100961.95
2018-06-03T16:38:15.859Z,100963.15
2018-06-03T16:41:19.094Z,100965.16
2018-06-03T16:44:23.234Z,100963.63
2018-06-03T16:47:25.815Z,100961.67
2018-06-03T16:50:28.979Z,100953.93
2018-06-03T16:53:31.692Z,100957.27
2018-06-03T16:56:34.467Z,100950.25
2018-06-03T16:59:37.209Z,100948.41
2018-06-03T17:02:39.806Z,100951.92
2018-06-03T17:05:42.615Z,100945.91
2018-06-03T17:08:45.226Z,100945.41
2018-06-03T17:11:48.123Z,100946.27
2018-06-03T17:14:51.687Z,100932.50
2018-06-03T17:17:54.461Z,100931.48
2018-06-03T17:20:57.163Z,100926.64
2018-06-03T17:23:59.836Z,100921.42
2018-06-03T17:27:02.635Z,100919.89
2018-06-03T17:30:05.387Z,100913.53
2018-06-03T17:33:08.157Z,100907.39
2018-06-03T17:36:10.852Z,100902.20
2018-06-03T17:39:13.717Z,100898.80
2018-06-03T17:42:16.344Z,100900.16
2018-06-03T17:45:18.993Z,100897.75
2018-06-03T17:48:21.753Z,100891.69
2018-06-03T17:51:24.544Z,100888.56
2018-06-03T17:54:27.181Z,100886.77
2018-06-03T17:57:30.487Z,100883.77
2018-06-03T18:00:33.339Z,100883.16
2018-06-03T18:03:36.095Z,100879.91
2018-06-03T18:06:38.713Z,100876.48
2018-06-03T18:09:41.365Z,100877.84
2018-06-03T18:12:44.974Z,100876.75
2018-06-03T18:15:49.459Z,100873.00
2018-06-03T18:18:52.732Z,100871.11
2018-06-03T18:21:57.596Z,100869.46
2018-06-03T18:25:00.641Z,100870.14
2018-06-03T18:28:04.448Z,100866.73
2018-06-03T18:31:07.107Z,100869.10
2018-06-03T18:34:09.852Z,100866.37
2018-06-03T18:37:12.570Z,100865.16
2018-06-03T18:40:15.153Z,100867.84
2018-06-03T18:43:17.926Z,100868.49
2018-06-03T18:46:20.672Z,100870.05
2018-06-03T18:49:23.444Z,100863.91
2018-06-03T18:52:26.329Z,100861.52
2018-06-03T18:55:29.020Z,100866.56
2018-06-03T18:58:31.696Z,100872.93
2018-06-03T19:01:35.304Z,100870.21
2018-06-03T19:04:37.971Z,100872.70
2018-06-03T19:07:40.595Z,100865.30
2018-06-03T19:10:43.452Z,100868.02
2018-06-03T19:13:46.655Z,100874.16
2018-06-03T19:16:49.292Z,100876.53
2018-06-03T19:19:51.946Z,100883.91
2018-06-03T19:22:55.835Z,100882.27
2018-06-03T19:26:02.529Z,100885.20
2018-06-03T19:29:05.975Z,100884.50
2018-06-03T19:32:09.746Z,100887.45
2018-06-03T19:35:14.353Z,100885.52
2018-06-03T19:38:17.521Z,100881.20
2018-06-03T19:41:21.414Z,100884.59
2018-06-03T19:44:25.879Z,100881.09
2018-06-03T19:47:30.426Z,100887.48
2018-06-03T19:50:33.379Z,100876.67
2018-06-03T19:53:37.417Z,100882.44
2018-06-03T19:56:40.078Z,100887.00
2018-06-03T19:59:43.202Z,100881.53
2018-06-03T20:02:46.255Z,100884.77
2018-06-03T20:05:49.138Z,100885.99
2018-06-03T20:08:51.806Z,100885.90
2018-06-03T20:11:54.459Z,100887.84
2018-06-03T20:14:57.105Z,100884.86
2018-06-03T20:17:59.803Z,100883.77
2018-06-03T20:21:02.384Z,100885.16
2018-06-03T20:24:05.035Z,100874.19
2018-06-03T20:27:07.711Z,100888.20
2018-06-03T20:30:10.505Z,100882.72
2018-06-03T20:33:13.134Z,100881.76
2018-06-03T20:36:15.781Z,100883.34
2018-06-03T20:39:18.368Z,100887.08
2018-06-03T20:42:21.026Z,100893.50
2018-06-03T20:45:23.635Z,100886.19
2018-06-03T20:48:26.246Z,100887.00
2018-06-03T20:51:28.829Z,100886.61
2018-06-03T20:55:22.502Z,100885.62
2018-06-03T20:58:25.983Z,100887.05
2018-06-03T21:01:29.351Z,100886.06
2018-06-03T21:04:36.010Z,100887.48
2018-06-03T21:07:39.539Z,100880.61
2018-06-03T21:10:42.974Z,100880.42
2018-06-03T21:13:46.442Z,100882.37
2018-06-03T21:16:51.910Z,100877.13
2018-06-03T21:19:55.565Z,100877.28
2018-06-03T21:22:59.946Z,100871.19
2018-06-03T21:26:03.331Z,100884.30
2018-06-03T21:29:06.674Z,100876.04
2018-06-03T21:32:09.951Z,100881.11
2018-06-03T21:35:13.311Z,100873.22
2018-06-03T21:38:16.695Z,100880.42
2018-06-03T21:41:19.959Z,100877.69
2018-06-03T21:44:23.290Z,100879.24
2018-06-03T21:47:26.625Z,100883.30
2018-06-03T21:50:29.991Z,100886.98
2018-06-03T21:53:33.342Z,100887.67
2018-06-03T21:56:36.671Z,100883.16
2018-06-03T21:59:40.007Z,100880.61
2018-06-03T22:02:43.506Z,100876.12
2018-06-03T22:05:46.857Z,100876.55
2018-06-03T22:08:50.174Z,100870.27
2018-06-03T22:11:53.461Z,100869.48
2018-06-03T22:14:56.736Z,100869.41
2018-06-03T22:18:00.110Z,100867.42
2018-06-03T22:21:03.362Z,100866.60
2018-06-03T22:24:06.623Z,100866.11
2018-06-03T22:27:09.807Z,100873.94
2018-06-03T22:30:13.011Z,100874.69
2018-06-03T22:33:16.303Z,100874.05
2018-06-03T22:36:19.492Z,100867.99
2018-06-03T22:39:22.829Z,100869.38
2018-06-03T22:42:26.090Z,100871.71
2018-06-03T22:45:29.353Z,100874.48
2018-06-03T22:48:32.622Z,100870.98
2018-06-03T22:51:35.877Z,100868.34
2018-06-03T22:54:39.177Z,100871.08
2018-06-03T22:57:48.902Z,100859.11
2018-06-03T23:00:52.359Z,100860.84
2018-06-03T23:03:55.644Z,100861.06
2018-06-03T23:06:58.958Z,100859.69
2018-06-03T23:10:02.291Z,100859.50
2018-06-03T23:13:05.585Z,100859.25
2018-06-03T23:16:08.824Z,100853.11
2018-06-03T23:19:13.329Z,100850.78
2018-06-03T23:22:16.559Z,100847.35
2018-06-03T23:25:19.854Z,100849.09
2018-06-03T23:28:23.625Z,100846.05
2018-06-03T23:31:26.895Z,100847.11
2018-06-03T23:34:30.112Z,100852.00
2018-06-03T23:37:33.289Z,100846.44
2018-06-03T23:40:36.541Z,100848.13
2018-06-03T23:43:39.719Z,100842.12
2018-06-03T23:46:42.978Z,100845.64
2018-06-03T23:49:46.135Z,100841.84
2018-06-03T23:52:49.376Z,100847.53
2018-06-03T23:55:52.593Z,100841.61
2018-06-03T23:58:55.757Z,100844.13
